Time;durP1;ratioP1;P1;durP2;ratioP2;P2;SDS_P1;SDS_P2;PMS_P1;PMS_P2;Temp;Humidity;BMP_temperature;BMP_pressure;BME280_temperature;BME280_humidity;BME280_pressure;Samples;Min_cycle;Max_cycle;Signal;HPM_P1;HPM_P2
2023/08/22 00:01:07;;;;;;;;;;;23.50;99.90;;;;;;4595765;19;19911;-64
2023/08/22 00:02:42;;;;;;;;;;;23.50;99.90;;;;;;4595720;19;19911;-64
2023/08/22 00:04:15;;;;;;;;;;;23.50;99.90;;;;;;4595147;19;20262;-64
2023/08/22 00:05:49;;;;;;;;;;;23.50;99.90;;;;;;4594736;19;19935;-64
2023/08/22 00:07:24;;;;;;;;;;;23.40;99.90;;;;;;4595646;19;19939;-64
2023/08/22 00:08:57;;;;;;;;;;;23.40;99.90;;;;;;4596160;19;20291;-64
2023/08/22 00:10:30;;;;;;;;;;;23.40;99.90;;;;;;4594355;19;19911;-64
2023/08/22 00:12:05;;;;;;;;;;;23.40;99.90;;;;;;4595170;19;19921;-64
2023/08/22 00:13:38;;;;;;;;;;;23.40;99.90;;;;;;4595680;19;19919;-64
2023/08/22 00:15:12;;;;;;;;;;;23.40;99.90;;;;;;4595475;19;19915;-64
2023/08/22 00:16:47;;;;;;;;;;;23.30;99.90;;;;;;4594022;19;19940;-64
2023/08/22 00:18:21;;;;;;;;;;;23.30;99.90;;;;;;4595345;19;19932;-64
2023/08/22 00:19:55;;;;;;;;;;;23.30;99.90;;;;;;4595620;19;20288;-64
2023/08/22 00:21:31;;;;;;;;;;;23.30;99.90;;;;;;4595355;19;19911;-64
2023/08/22 00:23:04;;;;;;;;;;;23.30;99.90;;;;;;4595316;19;19974;-64
2023/08/22 00:24:38;;;;;;;;;;;23.30;99.90;;;;;;4594221;19;19915;-64
2023/08/22 00:26:14;;;;;;;;;;;23.30;99.90;;;;;;4595522;19;19936;-64
2023/08/22 00:27:48;;;;;;;;;;;23.30;99.90;;;;;;4595451;19;19939;-64
2023/08/22 00:29:21;;;;;;;;;;;23.20;99.90;;;;;;4595496;19;19907;-64
2023/08/22 00:30:58;;;;;;;;;;;23.20;99.90;;;;;;4595144;19;19918;-64
2023/08/22 00:32:31;;;;;;;;;;;23.20;99.90;;;;;;4595104;19;19919;-64
2023/08/22 00:34:05;;;;;;;;;;;23.20;99.90;;;;;;4593295;19;19915;-64
2023/08/22 00:35:41;;;;;;;;;;;23.20;99.90;;;;;;4594792;19;19915;-64
2023/08/22 00:37:14;;;;;;;;;;;23.20;99.90;;;;;;4594227;19;19918;-64
2023/08/22 00:38:49;;;;;;;;;;;23.20;99.90;;;;;;4595232;19;19928;-64
2023/08/22 00:40:23;;;;;;;;;;;23.10;99.90;;;;;;4594988;19;19978;-64
2023/08/22 00:41:57;;;;;;;;;;;23.10;99.90;;;;;;4595013;19;20303;-64
2023/08/22 00:43:30;;;;;;;;;;;23.10;99.90;;;;;;4595171;19;19910;-64
2023/08/22 00:45:05;;;;;;;;;;;23.10;99.90;;;;;;4593509;19;19919;-64
2023/08/22 00:46:39;;;;;;;;;;;23.10;99.90;;;;;;4594823;19;19926;-64
2023/08/22 00:48:12;;;;;;;;;;;23.10;99.90;;;;;;4595035;19;19919;-63
2023/08/22 00:49:46;;;;;;;;;;;23.10;99.90;;;;;;4595016;19;19915;-63
2023/08/22 00:51:22;;;;;;;;;;;23.10;99.90;;;;;;4594960;19;20267;-63
2023/08/22 00:52:56;;;;;;;;;;;23.10;99.90;;;;;;4594946;19;19915;-63
2023/08/22 00:54:32;;;;;;;;;;;23.10;99.90;;;;;;4592348;19;19942;-64
2023/08/22 00:56:05;;;;;;;;;;;23.10;99.90;;;;;;4594230;19;19967;-63
2023/08/22 00:57:39;;;;;;;;;;;23.00;99.90;;;;;;4593775;19;19931;-63
2023/08/22 00:59:13;;;;;;;;;;;23.00;99.90;;;;;;4594845;19;19911;-63
2023/08/22 01:00:47;;;;;;;;;;;23.00;99.90;;;;;;4594529;19;19907;-63
2023/08/22 01:02:21;;;;;;;;;;;23.00;99.90;;;;;;4594768;19;19966;-64
2023/08/22 01:03:56;;;;;;;;;;;23.10;99.90;;;;;;4594146;19;19911;-63
2023/08/22 01:05:29;;;;;;;;;;;23.00;99.90;;;;;;4594437;19;19982;-63
2023/08/22 01:07:04;;;;;;;;;;;23.00;99.90;;;;;;4593062;19;19918;-63
2023/08/22 01:08:39;;;;;;;;;;;23.00;99.90;;;;;;4594336;19;19922;-63
2023/08/22 01:10:15;;;;;;;;;;;23.00;99.90;;;;;;4594587;19;20004;-64
2023/08/22 01:11:50;;;;;;;;;;;23.00;99.90;;;;;;4594314;19;19988;-64
2023/08/22 01:13:25;;;;;;;;;;;23.00;99.90;;;;;;4594568;19;19983;-63
2023/08/22 01:15:01;;;;;;;;;;;23.00;99.90;;;;;;4592043;19;19915;-64
2023/08/22 01:16:34;;;;;;;;;;;23.00;99.90;;;;;;4591075;19;19919;-63
2023/08/22 01:18:11;;;;;;;;;;;23.00;99.90;;;;;;4593854;19;19919;-63
2023/08/22 01:19:44;;;;;;;;;;;23.00;99.90;;;;;;4594398;19;19934;-63
2023/08/22 01:21:21;;;;;;;;;;;23.00;99.90;;;;;;4593047;19;19918;-63
2023/08/22 01:22:56;;;;;;;;;;;22.90;99.90;;;;;;4593755;19;20211;-63
2023/08/22 01:24:30;;;;;;;;;;;22.90;99.90;;;;;;4593257;19;19915;-64
2023/08/22 01:26:04;;;;;;;;;;;22.90;99.90;;;;;;4594255;19;19936;-63
2023/08/22 01:27:51;;;;;;;;;;;23.00;99.90;;;;;;4592675;19;20282;-63
2023/08/22 01:29:30;;;;;;;;;;;22.90;99.90;;;;;;4594034;19;19915;-63
2023/08/22 01:31:05;;;;;;;;;;;22.90;99.90;;;;;;4592585;19;19932;-64
2023/08/22 01:32:40;;;;;;;;;;;22.90;99.90;;;;;;4592866;19;19919;-64
2023/08/22 01:34:23;;;;;;;;;;;22.90;99.90;;;;;;4593200;19;20259;-63
2023/08/22 01:35:57;;;;;;;;;;;22.90;99.90;;;;;;4594061;19;19923;-64
2023/08/22 01:37:31;;;;;;;;;;;22.90;99.90;;;;;;4593231;19;19915;-64
2023/08/22 01:39:07;;;;;;;;;;;22.90;99.90;;;;;;4593984;19;19911;-64
2023/08/22 01:40:41;;;;;;;;;;;22.90;99.90;;;;;;4594022;19;19915;-64
2023/08/22 01:42:17;;;;;;;;;;;22.90;99.90;;;;;;4593952;19;19922;-63
2023/08/22 01:43:51;;;;;;;;;;;22.90;99.90;;;;;;4593111;19;19922;-64
2023/08/22 01:45:25;;;;;;;;;;;22.80;99.90;;;;;;4593655;19;19918;-64
2023/08/22 01:47:00;;;;;;;;;;;22.80;99.90;;;;;;4593918;19;19926;-64
2023/08/22 01:48:34;;;;;;;;;;;22.90;99.90;;;;;;4593802;19;19974;-63
2023/08/22 01:50:12;;;;;;;;;;;22.80;99.90;;;;;;4593796;19;19914;-64
2023/08/22 01:51:46;;;;;;;;;;;22.90;99.90;;;;;;4593577;19;19910;-64
2023/08/22 01:53:20;;;;;;;;;;;22.80;99.90;;;;;;4593457;19;19966;-64
2023/08/22 01:54:53;;;;;;;;;;;22.80;99.90;;;;;;4592688;19;19922;-63
2023/08/22 01:56:28;;;;;;;;;;;22.80;99.90;;;;;;4593722;19;19921;-64
2023/08/22 01:58:03;;;;;;;;;;;22.80;99.90;;;;;;4591009;19;19914;-64
2023/08/22 01:59:36;;;;;;;;;;;22.80;99.90;;;;;;4593206;19;20229;-63
2023/08/22 02:01:11;;;;;;;;;;;22.80;99.90;;;;;;4593326;19;19914;-64
2023/08/22 02:02:45;;;;;;;;;;;22.80;99.90;;;;;;4593549;19;20278;-64
2023/08/22 02:04:19;;;;;;;;;;;22.80;99.90;;;;;;4592689;19;19928;-64
2023/08/22 02:05:54;;;;;;;;;;;22.80;99.90;;;;;;4592192;19;19922;-63
2023/08/22 02:07:28;;;;;;;;;;;22.80;99.90;;;;;;4592827;19;19911;-63
2023/08/22 02:09:02;;;;;;;;;;;22.80;99.90;;;;;;4593227;19;19915;-64
2023/08/22 02:10:36;;;;;;;;;;;22.80;99.90;;;;;;4593159;19;20251;-64
2023/08/22 02:12:10;;;;;;;;;;;22.80;99.90;;;;;;4593416;19;19922;-63
2023/08/22 02:13:44;;;;;;;;;;;22.80;99.90;;;;;;4593193;19;19914;-64
2023/08/22 02:15:20;;;;;;;;;;;22.80;99.90;;;;;;4593312;19;19911;-64
2023/08/22 02:16:55;;;;;;;;;;;22.80;99.90;;;;;;4592989;19;19921;-64
2023/08/22 02:18:29;;;;;;;;;;;22.80;99.90;;;;;;4593250;19;19922;-64
2023/08/22 02:20:04;;;;;;;;;;;22.80;99.90;;;;;;4592861;19;19915;-64
2023/08/22 02:21:38;;;;;;;;;;;22.80;99.90;;;;;;4592894;19;19919;-64
2023/08/22 02:23:12;;;;;;;;;;;22.80;99.90;;;;;;4593231;19;20193;-63
2023/08/22 02:24:47;;;;;;;;;;;22.70;99.90;;;;;;4592019;19;19936;-64
2023/08/22 02:26:21;;;;;;;;;;;22.70;99.90;;;;;;4592891;19;19922;-64
2023/08/22 02:27:55;;;;;;;;;;;22.70;99.90;;;;;;4592167;19;19911;-64
2023/08/22 02:29:29;;;;;;;;;;;22.70;99.90;;;;;;4591554;19;19940;-63
2023/08/22 02:31:03;;;;;;;;;;;22.70;99.90;;;;;;4592746;19;19929;-64
2023/08/22 02:32:36;;;;;;;;;;;22.80;99.90;;;;;;4593018;19;19940;-63
2023/08/22 02:34:33;;;;;;;;;;;22.70;99.90;;;;;;4590948;19;20247;-63
2023/08/22 02:36:07;;;;;;;;;;;22.70;99.90;;;;;;4592729;19;19944;-63
2023/08/22 02:37:41;;;;;;;;;;;22.70;99.90;;;;;;4591805;19;19978;-63
2023/08/22 02:39:16;;;;;;;;;;;22.70;99.90;;;;;;4592585;19;19911;-63
2023/08/22 02:40:49;;;;;;;;;;;22.70;99.90;;;;;;4592878;19;19911;-63
2023/08/22 02:42:23;;;;;;;;;;;22.70;99.90;;;;;;4592532;19;19975;-63
2023/08/22 02:43:58;;;;;;;;;;;22.70;99.90;;;;;;4592291;19;20216;-64
2023/08/22 02:45:32;;;;;;;;;;;22.70;99.90;;;;;;4592642;19;19947;-63
2023/08/22 02:47:05;;;;;;;;;;;22.70;99.90;;;;;;4591260;19;19925;-64
2023/08/22 02:48:39;;;;;;;;;;;22.70;99.90;;;;;;4592213;19;19931;-63
2023/08/22 02:50:13;;;;;;;;;;;22.70;99.90;;;;;;4592522;19;19925;-64
2023/08/22 02:51:48;;;;;;;;;;;22.70;99.90;;;;;;4592731;19;20296;-63
2023/08/22 02:53:23;;;;;;;;;;;22.70;99.90;;;;;;4592707;19;19934;-64
2023/08/22 02:54:57;;;;;;;;;;;22.70;99.90;;;;;;4591543;19;19974;-63
2023/08/22 02:56:31;;;;;;;;;;;22.70;99.90;;;;;;4591101;19;19911;-63
2023/08/22 02:58:05;;;;;;;;;;;22.70;99.90;;;;;;4590015;19;19915;-63
2023/08/22 02:59:39;;;;;;;;;;;22.70;99.90;;;;;;4591941;19;19971;-64
2023/08/22 03:01:13;;;;;;;;;;;22.70;99.90;;;;;;4592331;19;19948;-63
2023/08/22 03:02:48;;;;;;;;;;;22.70;99.90;;;;;;4591224;19;19915;-64
2023/08/22 03:04:21;;;;;;;;;;;22.70;99.90;;;;;;4591500;19;20225;-64
2023/08/22 03:05:56;;;;;;;;;;;22.70;99.90;;;;;;4592212;19;19915;-63
2023/08/22 03:07:32;;;;;;;;;;;22.70;99.90;;;;;;4592250;19;19923;-63
2023/08/22 03:09:05;;;;;;;;;;;22.70;99.90;;;;;;4590835;19;20319;-63
2023/08/22 03:10:40;;;;;;;;;;;22.70;99.90;;;;;;4591783;19;19911;-63
2023/08/22 03:12:15;;;;;;;;;;;22.70;99.90;;;;;;4592100;19;20287;-63
2023/08/22 03:13:49;;;;;;;;;;;22.70;99.90;;;;;;4591807;19;19922;-63
2023/08/22 03:15:23;;;;;;;;;;;22.70;99.90;;;;;;4592055;19;19939;-63
2023/08/22 03:16:59;;;;;;;;;;;22.70;99.90;;;;;;4590264;19;19915;-64
2023/08/22 03:18:32;;;;;;;;;;;22.70;99.90;;;;;;4591975;19;20303;-63
2023/08/22 03:20:07;;;;;;;;;;;22.60;99.90;;;;;;4590980;19;19914;-63
2023/08/22 03:21:42;;;;;;;;;;;22.60;99.90;;;;;;4591666;19;19982;-63
2023/08/22 03:23:15;;;;;;;;;;;22.70;99.90;;;;;;4592232;19;19915;-64
2023/08/22 03:24:48;;;;;;;;;;;22.60;99.90;;;;;;4591088;19;19925;-63
2023/08/22 03:26:22;;;;;;;;;;;22.60;99.90;;;;;;4592154;19;19915;-63
2023/08/22 03:27:58;;;;;;;;;;;22.60;99.90;;;;;;4591857;19;19918;-63
2023/08/22 03:29:31;;;;;;;;;;;22.60;99.90;;;;;;4591865;19;19922;-63
2023/08/22 03:31:06;;;;;;;;;;;22.60;99.90;;;;;;4592111;19;20019;-63
2023/08/22 03:32:39;;;;;;;;;;;22.60;99.90;;;;;;4592050;19;19943;-63
2023/08/22 03:34:13;;;;;;;;;;;22.70;99.90;;;;;;4591127;19;19915;-63
2023/08/22 03:35:48;;;;;;;;;;;22.60;99.90;;;;;;4592025;19;19915;-63
2023/08/22 03:37:21;;;;;;;;;;;22.60;99.90;;;;;;4590984;19;19922;-63
2023/08/22 03:38:55;;;;;;;;;;;22.60;99.90;;;;;;4591737;19;19918;-63
2023/08/22 03:40:30;;;;;;;;;;;22.60;99.90;;;;;;4594269;19;19937;-63
2023/08/22 03:42:03;;;;;;;;;;;22.60;99.90;;;;;;4596127;19;20269;-63
2023/08/22 03:43:36;;;;;;;;;;;22.60;99.90;;;;;;4596147;19;19911;-63
2023/08/22 03:45:11;;;;;;;;;;;22.60;99.90;;;;;;4594391;19;19919;-63
2023/08/22 03:46:44;;;;;;;;;;;22.70;99.90;;;;;;4596006;19;19918;-63
2023/08/22 03:48:17;;;;;;;;;;;22.70;99.90;;;;;;4596066;19;19911;-63
2023/08/22 03:49:52;;;;;;;;;;;22.70;99.90;;;;;;4595992;19;19922;-63
2023/08/22 03:51:25;;;;;;;;;;;22.80;99.90;;;;;;4596197;19;19911;-63
2023/08/22 03:52:58;;;;;;;;;;;22.80;99.90;;;;;;4596175;19;19966;-63
2023/08/22 03:54:34;;;;;;;;;;;22.90;99.90;;;;;;4595182;19;20188;-63
2023/08/22 03:56:08;;;;;;;;;;;23.00;99.90;;;;;;4595887;19;20397;-63
2023/08/22 03:57:41;;;;;;;;;;;23.00;99.90;;;;;;4594940;19;19934;-64
2023/08/22 03:59:16;;;;;;;;;;;23.00;99.90;;;;;;4595783;19;20217;-64
2023/08/22 04:00:49;;;;;;;;;;;23.00;99.90;;;;;;4596010;19;19915;-64
2023/08/22 04:02:23;;;;;;;;;;;23.10;99.90;;;;;;4596058;19;19907;-64
2023/08/22 04:03:58;;;;;;;;;;;23.10;99.90;;;;;;4595353;19;20235;-64
2023/08/22 04:05:31;;;;;;;;;;;23.10;99.90;;;;;;4595978;19;19919;-64
2023/08/22 04:07:05;;;;;;;;;;;23.10;99.90;;;;;;4595897;19;19910;-63
2023/08/22 04:08:40;;;;;;;;;;;23.10;99.90;;;;;;4595901;19;20342;-63
2023/08/22 04:10:14;;;;;;;;;;;23.30;99.90;;;;;;4595619;19;19915;-63
2023/08/22 04:11:47;;;;;;;;;;;23.40;99.90;;;;;;4595589;19;20213;-64
2023/08/22 04:13:22;;;;;;;;;;;23.50;99.90;;;;;;4595815;19;19995;-64
2023/08/22 04:14:56;;;;;;;;;;;23.50;99.90;;;;;;4594489;19;19922;-63
2023/08/22 04:16:29;;;;;;;;;;;23.60;99.90;;;;;;4595752;19;20296;-63
2023/08/22 04:18:04;;;;;;;;;;;23.60;99.90;;;;;;4594022;19;20320;-64
2023/08/22 04:19:38;;;;;;;;;;;23.60;99.90;;;;;;4595644;19;19918;-61
2023/08/22 04:21:11;;;;;;;;;;;23.60;99.90;;;;;;4595602;19;19939;-61
2023/08/22 04:22:46;;;;;;;;;;;23.50;99.90;;;;;;4595215;19;20231;-61
2023/08/22 04:24:20;;;;;;;;;;;23.40;99.90;;;;;;4594677;19;19926;-61
2023/08/22 04:25:54;;;;;;;;;;;23.30;99.90;;;;;;4595152;19;19932;-61
2023/08/22 04:27:29;;;;;;;;;;;23.20;99.90;;;;;;4595031;19;19940;-61
2023/08/22 04:29:03;;;;;;;;;;;23.10;99.90;;;;;;4595081;19;20304;-61
2023/08/22 04:30:36;;;;;;;;;;;23.10;99.90;;;;;;4595413;19;19915;-61
2023/08/22 04:32:11;;;;;;;;;;;23.00;99.90;;;;;;4595340;19;19914;-61
2023/08/22 04:33:44;;;;;;;;;;;23.00;99.90;;;;;;4594786;19;19915;-61
2023/08/22 04:35:17;;;;;;;;;;;23.00;99.90;;;;;;4595022;19;19978;-61
2023/08/22 04:36:52;;;;;;;;;;;22.90;99.90;;;;;;4594975;19;19966;-61
2023/08/22 04:38:25;;;;;;;;;;;22.90;99.90;;;;;;4594817;19;20327;-61
2023/08/22 04:39:59;;;;;;;;;;;22.90;99.90;;;;;;4594361;19;19911;-61
2023/08/22 04:41:33;;;;;;;;;;;22.90;99.90;;;;;;4594780;19;19919;-60
2023/08/22 04:43:07;;;;;;;;;;;22.80;99.90;;;;;;4594789;19;19926;-60
2023/08/22 04:44:40;;;;;;;;;;;22.90;99.90;;;;;;4593411;19;20209;-60
2023/08/22 04:46:17;;;;;;;;;;;22.80;99.90;;;;;;4594662;19;20266;-60
2023/08/22 04:47:50;;;;;;;;;;;22.80;99.90;;;;;;4595063;19;19918;-60
2023/08/22 04:49:24;;;;;;;;;;;22.80;99.90;;;;;;4593362;19;19970;-60
2023/08/22 04:50:59;;;;;;;;;;;22.80;99.90;;;;;;4593749;19;19918;-61
2023/08/22 04:53:13;;;;;;;;;;;22.80;99.90;;;;;;4598825;19;19919;-58
2023/08/22 04:55:30;;;;;;;;;;;22.80;99.90;;;;;;4600316;19;20284;-59
2023/08/22 05:01:43;;;;;;;;;;;22.80;99.90;;;;;;4603456;19;19910;-58
2023/08/22 05:03:45;;;;;;;;;;;22.80;99.90;;;;;;4593309;19;19911;-60
2023/08/22 05:05:18;;;;;;;;;;;22.80;99.90;;;;;;4589519;19;19953;-61
2023/08/22 05:06:53;;;;;;;;;;;22.80;99.90;;;;;;4589612;19;19911;-61
2023/08/22 05:08:26;;;;;;;;;;;22.80;99.90;;;;;;4590973;19;19918;-62
2023/08/22 05:09:59;;;;;;;;;;;22.80;99.90;;;;;;4591139;19;19915;-62
2023/08/22 05:11:35;;;;;;;;;;;22.90;99.90;;;;;;4591606;19;19915;-63
2023/08/22 05:13:09;;;;;;;;;;;22.90;99.90;;;;;;4591665;19;19911;-62
2023/08/22 05:14:43;;;;;;;;;;;23.00;99.90;;;;;;4590610;19;20303;-62
2023/08/22 05:16:19;;;;;;;;;;;23.00;99.90;;;;;;4591598;19;19930;-62
2023/08/22 05:17:52;;;;;;;;;;;23.00;99.90;;;;;;4590830;19;19911;-62
2023/08/22 05:19:26;;;;;;;;;;;23.10;99.90;;;;;;4591539;19;19919;-62
2023/08/22 05:21:00;;;;;;;;;;;23.10;99.90;;;;;;4591370;19;19923;-62
2023/08/22 05:22:34;;;;;;;;;;;23.20;99.90;;;;;;4591831;19;20287;-62
2023/08/22 05:24:07;;;;;;;;;;;23.20;99.90;;;;;;4590967;19;19996;-62
2023/08/22 05:25:42;;;;;;;;;;;23.30;99.90;;;;;;4591354;19;20098;-62
2023/08/22 05:27:17;;;;;;;;;;;23.30;99.90;;;;;;4591544;19;19911;-62
2023/08/22 05:28:50;;;;;;;;;;;23.40;99.90;;;;;;4591463;19;19932;-62
2023/08/22 05:30:26;;;;;;;;;;;23.40;99.90;;;;;;4591304;19;19928;-62
2023/08/22 05:32:00;;;;;;;;;;;23.40;99.90;;;;;;4591607;19;19922;-62
2023/08/22 05:33:34;;;;;;;;;;;23.50;99.90;;;;;;4591175;19;19983;-62
2023/08/22 05:35:09;;;;;;;;;;;23.50;99.90;;;;;;4590175;19;19915;-62
2023/08/22 05:36:43;;;;;;;;;;;23.50;99.90;;;;;;4591102;19;19919;-62
2023/08/22 05:38:16;;;;;;;;;;;23.50;99.90;;;;;;4591273;19;20006;-62
2023/08/22 05:39:51;;;;;;;;;;;23.50;99.90;;;;;;4591323;19;19918;-62
2023/08/22 05:41:26;;;;;;;;;;;23.50;99.90;;;;;;4591323;19;19911;-62
2023/08/22 05:42:59;;;;;;;;;;;23.50;99.90;;;;;;4591611;19;20233;-62
2023/08/22 05:44:35;;;;;;;;;;;23.50;99.90;;;;;;4590309;19;19923;-62
2023/08/22 05:46:09;;;;;;;;;;;23.50;99.90;;;;;;4591151;19;19914;-62
2023/08/22 05:47:43;;;;;;;;;;;23.60;99.90;;;;;;4591184;19;19951;-62
2023/08/22 05:49:17;;;;;;;;;;;23.60;99.90;;;;;;4590995;19;20336;-62
2023/08/22 05:50:51;;;;;;;;;;;23.60;99.90;;;;;;4591255;19;19919;-62
2023/08/22 05:52:25;;;;;;;;;;;23.60;99.90;;;;;;4591404;19;19911;-62
2023/08/22 05:53:59;;;;;;;;;;;23.70;99.90;;;;;;4591141;19;19998;-62
2023/08/22 05:55:34;;;;;;;;;;;23.70;99.90;;;;;;4591029;19;19923;-62
2023/08/22 05:57:08;;;;;;;;;;;23.70;99.90;;;;;;4590980;19;19960;-62
2023/08/22 05:58:43;;;;;;;;;;;23.80;99.90;;;;;;4591451;19;19915;-62
2023/08/22 06:00:16;;;;;;;;;;;23.80;99.90;;;;;;4591011;19;19930;-62
2023/08/22 06:01:50;;;;;;;;;;;23.80;99.90;;;;;;4590478;19;20228;-62
2023/08/22 06:03:25;;;;;;;;;;;23.80;99.90;;;;;;4589023;19;19911;-62
2023/08/22 06:04:58;;;;;;;;;;;23.80;99.90;;;;;;4589232;19;20235;-63
2023/08/22 06:06:32;;;;;;;;;;;23.90;99.90;;;;;;4590213;19;19943;-63
2023/08/22 06:08:06;;;;;;;;;;;23.90;99.90;;;;;;4590333;19;20008;-64
2023/08/22 06:09:41;;;;;;;;;;;23.80;99.90;;;;;;4590748;19;19915;-63
2023/08/22 06:11:14;;;;;;;;;;;23.60;99.90;;;;;;4590712;19;20230;-64
2023/08/22 06:12:48;;;;;;;;;;;23.40;99.90;;;;;;4590583;19;19911;-64
2023/08/22 06:14:22;;;;;;;;;;;23.30;99.90;;;;;;4589195;19;20243;-64
2023/08/22 06:15:58;;;;;;;;;;;23.20;99.90;;;;;;4592809;19;20276;-64
2023/08/22 06:17:34;;;;;;;;;;;23.00;99.90;;;;;;4591633;19;19919;-64
2023/08/22 06:19:07;;;;;;;;;;;22.90;99.90;;;;;;4590358;19;20009;-64
2023/08/22 06:20:40;;;;;;;;;;;22.80;99.90;;;;;;4590149;19;20256;-64
2023/08/22 06:22:15;;;;;;;;;;;22.70;99.90;;;;;;4590477;19;19911;-64
2023/08/22 06:23:48;;;;;;;;;;;22.70;99.90;;;;;;4590087;19;19911;-64
2023/08/22 06:25:22;;;;;;;;;;;22.60;99.90;;;;;;4590388;19;20247;-64
2023/08/22 06:26:56;;;;;;;;;;;22.60;99.90;;;;;;4590288;19;19922;-64
2023/08/22 06:28:30;;;;;;;;;;;22.50;99.90;;;;;;4590070;19;19978;-64
2023/08/22 06:30:03;;;;;;;;;;;22.50;99.90;;;;;;4590131;19;19919;-64
2023/08/22 06:31:38;;;;;;;;;;;22.50;99.90;;;;;;4590456;19;19922;-64
2023/08/22 06:33:12;;;;;;;;;;;22.40;99.90;;;;;;4590175;19;19915;-64
2023/08/22 06:34:46;;;;;;;;;;;22.40;99.90;;;;;;4589298;19;19919;-64
2023/08/22 06:36:20;;;;;;;;;;;22.30;99.90;;;;;;4589927;19;19949;-64
2023/08/22 06:37:54;;;;;;;;;;;22.40;99.90;;;;;;4591133;19;19911;-64
2023/08/22 06:39:28;;;;;;;;;;;22.30;99.90;;;;;;4592110;19;19983;-64
2023/08/22 06:41:06;;;;;;;;;;;22.30;99.90;;;;;;4592283;19;19939;-64
2023/08/22 06:42:39;;;;;;;;;;;22.40;99.90;;;;;;4592060;19;19915;-65
2023/08/22 06:44:12;;;;;;;;;;;22.70;99.90;;;;;;4591628;19;19938;-65
2023/08/22 06:45:47;;;;;;;;;;;22.90;99.90;;;;;;4590966;19;19919;-65
2023/08/22 06:47:20;;;;;;;;;;;23.10;99.90;;;;;;4591804;19;19911;-65
2023/08/22 06:48:57;;;;;;;;;;;23.20;99.90;;;;;;4592094;19;19918;-65
2023/08/22 06:50:36;;;;;;;;;;;23.30;99.90;;;;;;4589958;19;19930;-65
2023/08/22 06:52:19;;;;;;;;;;;23.40;99.90;;;;;;4591888;19;20295;-65
2023/08/22 06:54:02;;;;;;;;;;;23.50;99.90;;;;;;4589702;19;19930;-65
2023/08/22 06:55:37;;;;;;;;;;;23.50;99.90;;;;;;4589892;19;20213;-65
2023/08/22 06:57:10;;;;;;;;;;;23.50;99.90;;;;;;4591827;19;19918;-65
2023/08/22 06:58:44;;;;;;;;;;;23.60;99.90;;;;;;4592529;19;19923;-65
2023/08/22 07:00:21;;;;;;;;;;;23.60;99.90;;;;;;4592499;19;19922;-65
2023/08/22 07:01:54;;;;;;;;;;;23.70;99.90;;;;;;4592417;19;20245;-65
2023/08/22 07:03:29;;;;;;;;;;;23.70;99.90;;;;;;4591192;19;19918;-65
2023/08/22 07:05:04;;;;;;;;;;;23.70;99.90;;;;;;4590564;19;19922;-65
2023/08/22 07:06:38;;;;;;;;;;;23.70;99.90;;;;;;4592428;19;19915;-65
2023/08/22 07:08:11;;;;;;;;;;;23.70;99.90;;;;;;4592441;19;19939;-65
2023/08/22 07:09:48;;;;;;;;;;;23.70;99.90;;;;;;4592451;19;19907;-65
2023/08/22 07:11:21;;;;;;;;;;;23.70;99.90;;;;;;4592050;19;19919;-65
2023/08/22 07:12:55;;;;;;;;;;;23.80;99.90;;;;;;4591055;19;20375;-65
2023/08/22 07:14:30;;;;;;;;;;;23.80;99.90;;;;;;4590951;19;19922;-65
2023/08/22 07:16:03;;;;;;;;;;;23.80;99.90;;;;;;4596120;19;19970;-65
2023/08/22 07:17:36;;;;;;;;;;;23.80;99.90;;;;;;4595981;19;20299;-65
2023/08/22 07:19:11;;;;;;;;;;;23.70;99.90;;;;;;4596849;19;20219;-65
2023/08/22 07:20:46;;;;;;;;;;;23.70;99.90;;;;;;4596853;19;19939;-65
2023/08/22 07:22:19;;;;;;;;;;;23.80;99.90;;;;;;4596855;19;19931;-65
2023/08/22 07:23:54;;;;;;;;;;;23.80;99.90;;;;;;4596080;19;19911;-65
2023/08/22 07:25:28;;;;;;;;;;;23.80;99.90;;;;;;4596781;19;19921;-65
2023/08/22 07:27:02;;;;;;;;;;;23.70;99.90;;;;;;4596551;19;19918;-65
2023/08/22 07:28:37;;;;;;;;;;;23.80;99.90;;;;;;4595073;19;19911;-65
2023/08/22 07:30:10;;;;;;;;;;;23.80;99.90;;;;;;4596065;19;19926;-65
2023/08/22 07:31:43;;;;;;;;;;;23.70;99.90;;;;;;4596383;19;20320;-65
2023/08/22 07:33:20;;;;;;;;;;;23.70;99.90;;;;;;4596324;19;19935;-65
2023/08/22 07:34:54;;;;;;;;;;;23.80;99.90;;;;;;4594938;19;19919;-65
2023/08/22 07:36:27;;;;;;;;;;;23.80;99.90;;;;;;4595238;19;20303;-65
2023/08/22 07:38:02;;;;;;;;;;;23.80;99.90;;;;;;4594532;19;19915;-65
2023/08/22 07:39:37;;;;;;;;;;;23.80;99.90;;;;;;4596212;19;19915;-65
2023/08/22 07:41:11;;;;;;;;;;;23.80;99.90;;;;;;4596230;19;19990;-65
2023/08/22 07:42:45;;;;;;;;;;;23.70;99.90;;;;;;4596422;19;19935;-65
2023/08/22 07:44:19;;;;;;;;;;;23.80;99.90;;;;;;4595305;19;19918;-65
2023/08/22 07:45:52;;;;;;;;;;;23.80;99.90;;;;;;4596425;19;19933;-65
2023/08/22 07:47:27;;;;;;;;;;;23.70;99.90;;;;;;4596273;19;19950;-65
2023/08/22 07:49:00;;;;;;;;;;;23.70;99.90;;;;;;4596066;19;19933;-65
2023/08/22 07:50:34;;;;;;;;;;;23.70;99.90;;;;;;4596266;19;20216;-65
2023/08/22 07:52:09;;;;;;;;;;;23.70;99.90;;;;;;4596275;19;19911;-65
2023/08/22 07:53:42;;;;;;;;;;;23.70;99.90;;;;;;4595736;19;19929;-65
2023/08/22 07:55:23;;;;;;;;;;;23.70;99.90;;;;;;4596216;19;19919;-65
2023/08/22 07:57:35;;;;;;;;;;;23.70;99.90;;;;;;4592691;19;19923;-65
2023/08/22 07:59:16;;;;;;;;;;;23.70;99.90;;;;;;4596159;19;19919;-65
2023/08/22 08:00:55;;;;;;;;;;;23.70;99.90;;;;;;4595814;19;19919;-65
2023/08/22 08:02:38;;;;;;;;;;;23.70;99.90;;;;;;4595671;19;19915;-65
2023/08/22 08:04:18;;;;;;;;;;;23.70;99.90;;;;;;4593246;19;19927;-65
2023/08/22 08:08:30;;;;;;;;;;;23.70;99.90;;;;;;4595261;19;19919;-65
2023/08/22 08:10:04;;;;;;;;;;;23.70;99.90;;;;;;4595152;19;19918;-65
2023/08/22 08:11:37;;;;;;;;;;;23.70;99.90;;;;;;4595397;19;19915;-65
2023/08/22 08:13:13;;;;;;;;;;;23.80;99.90;;;;;;4595334;19;19935;-65
2023/08/22 08:14:46;;;;;;;;;;;23.80;99.90;;;;;;4593747;19;19915;-65
2023/08/22 08:16:20;;;;;;;;;;;23.80;99.90;;;;;;4595284;19;19921;-65
2023/08/22 08:18:03;;;;;;;;;;;23.80;99.90;;;;;;4592632;19;20219;-65
2023/08/22 08:19:48;;;;;;;;;;;23.80;99.90;;;;;;4593645;19;19929;-65
2023/08/22 08:21:25;;;;;;;;;;;23.80;99.90;;;;;;4593983;19;19947;-65
2023/08/22 08:23:10;;;;;;;;;;;23.80;99.90;;;;;;4595250;19;19923;-65
2023/08/22 08:24:52;;;;;;;;;;;23.80;99.90;;;;;;4592595;19;20284;-65
2023/08/22 08:26:30;;;;;;;;;;;23.80;99.90;;;;;;4592823;19;19927;-65
2023/08/22 08:28:07;;;;;;;;;;;23.80;99.90;;;;;;4594667;19;19923;-65
2023/08/22 08:29:40;;;;;;;;;;;23.80;99.90;;;;;;4594889;19;19925;-65
2023/08/22 08:31:14;;;;;;;;;;;23.90;99.90;;;;;;4594544;19;19922;-65
2023/08/22 08:32:48;;;;;;;;;;;23.80;99.90;;;;;;4594865;19;19915;-65
2023/08/22 08:34:22;;;;;;;;;;;23.70;99.90;;;;;;4593021;19;20288;-65
2023/08/22 08:36:00;;;;;;;;;;;23.70;99.90;;;;;;4594948;19;19932;-65
2023/08/22 08:38:01;;;;;;;;;;;23.70;99.90;;;;;;4592886;19;20246;-65
2023/08/22 08:39:37;;;;;;;;;;;23.60;99.90;;;;;;4594027;19;19983;-65
2023/08/22 08:41:23;;;;;;;;;;;23.50;99.90;;;;;;4593691;19;19950;-65
2023/08/22 08:43:36;;;;;;;;;;;23.50;99.90;;;;;;4593129;19;19907;-65
2023/08/22 08:45:32;;;;;;;;;;;23.40;99.90;;;;;;4594915;19;19922;-65
2023/08/22 08:47:11;;;;;;;;;;;23.20;99.90;;;;;;4593886;19;19914;-65
2023/08/22 08:48:47;;;;;;;;;;;23.20;99.90;;;;;;4594569;19;19923;-65
2023/08/22 08:50:22;;;;;;;;;;;23.10;99.90;;;;;;4593717;19;19923;-65
2023/08/22 08:51:55;;;;;;;;;;;23.10;99.90;;;;;;4594310;19;19915;-64
2023/08/22 08:53:29;;;;;;;;;;;23.20;99.90;;;;;;4594831;19;19925;-65
2023/08/22 08:55:05;;;;;;;;;;;22.20;99.90;;;;;;4592089;19;19922;-62
2023/08/22 08:56:40;;;;;;;;;;;21.20;99.90;;;;;;4594510;19;19919;-62
2023/08/22 08:58:14;;;;;;;;;;;20.80;99.90;;;;;;4591992;19;19919;-62
2023/08/22 08:59:48;;;;;;;;;;;20.70;99.90;;;;;;4592659;19;20281;-62
2023/08/22 09:01:22;;;;;;;;;;;20.70;99.90;;;;;;4592143;19;20351;-62
2023/08/22 09:02:55;;;;;;;;;;;20.70;99.90;;;;;;4593201;19;19922;-62
2023/08/22 09:04:31;;;;;;;;;;;20.80;99.90;;;;;;4592312;19;19935;-62
2023/08/22 09:06:04;;;;;;;;;;;20.80;99.90;;;;;;4592657;19;19915;-62
2023/08/22 09:07:38;;;;;;;;;;;20.90;99.90;;;;;;4592594;19;19919;-62
2023/08/22 09:09:12;;;;;;;;;;;20.90;99.90;;;;;;4592990;19;20297;-62
2023/08/22 09:10:51;;;;;;;;;;;20.90;99.90;;;;;;4591519;19;19919;-62
2023/08/22 09:12:31;;;;;;;;;;;21.00;99.90;;;;;;4592716;19;20631;-62
2023/08/22 09:14:06;;;;;;;;;;;21.00;99.90;;;;;;4594093;19;19923;-62
2023/08/22 09:15:41;;;;;;;;;;;21.00;99.90;;;;;;4593204;19;19990;-62
2023/08/22 09:17:17;;;;;;;;;;;21.00;99.90;;;;;;4592524;19;19915;-62
2023/08/22 09:18:52;;;;;;;;;;;21.00;99.90;;;;;;4593956;19;19923;-62
2023/08/22 09:20:26;;;;;;;;;;;21.00;99.90;;;;;;4594422;19;19919;-62
2023/08/22 09:22:03;;;;;;;;;;;21.00;99.90;;;;;;4594096;19;19919;-62